sensor_id;sensor_type;location;lat;lon;timestamp;P1;durP1;ratioP1;P2;durP2;ratioP2
22480;SDS011;11407;56.964;-2.212;2023-04-15T00:00:24;5.97;;;3.87;;
22480;SDS011;11407;56.964;-2.212;2023-04-15T00:02:49;7.00;;;3.93;;
22480;SDS011;11407;56.964;-2.212;2023-04-15T00:05:15;9.33;;;4.00;;
22480;SDS011;11407;56.964;-2.212;2023-04-15T00:07:40;6.87;;;3.73;;
22480;SDS011;11407;56.964;-2.212;2023-04-15T00:10:05;8.10;;;3.83;;
22480;SDS011;11407;56.964;-2.212;2023-04-15T00:12:31;7.23;;;3.80;;
22480;SDS011;11407;56.964;-2.212;2023-04-15T00:14:56;6.60;;;4.07;;
22480;SDS011;11407;56.964;-2.212;2023-04-15T00:17:23;4.97;;;3.50;;
22480;SDS011;11407;56.964;-2.212;2023-04-15T00:19:48;5.03;;;3.00;;
22480;SDS011;11407;56.964;-2.212;2023-04-15T00:22:13;6.63;;;3.60;;
22480;SDS011;11407;56.964;-2.212;2023-04-15T00:24:38;9.83;;;3.73;;
22480;SDS011;11407;56.964;-2.212;2023-04-15T00:27:04;4.57;;;2.70;;
22480;SDS011;11407;56.964;-2.212;2023-04-15T00:29:29;6.80;;;3.37;;
22480;SDS011;11407;56.964;-2.212;2023-04-15T00:31:55;9.63;;;3.67;;
22480;SDS011;11407;56.964;-2.212;2023-04-15T00:34:21;7.47;;;3.47;;
22480;SDS011;11407;56.964;-2.212;2023-04-15T00:36:46;5.87;;;3.20;;
22480;SDS011;11407;56.964;-2.212;2023-04-15T00:39:11;5.97;;;2.67;;
22480;SDS011;11407;56.964;-2.212;2023-04-15T00:41:37;5.33;;;3.23;;
22480;SDS011;11407;56.964;-2.212;2023-04-15T00:44:04;5.33;;;3.40;;
22480;SDS011;11407;56.964;-2.212;2023-04-15T00:46:30;6.10;;;3.57;;
22480;SDS011;11407;56.964;-2.212;2023-04-15T00:48:55;7.07;;;3.57;;
22480;SDS011;11407;56.964;-2.212;2023-04-15T00:51:21;7.57;;;4.00;;
22480;SDS011;11407;56.964;-2.212;2023-04-15T00:53:46;6.63;;;3.47;;
22480;SDS011;11407;56.964;-2.212;2023-04-15T00:56:11;6.33;;;3.43;;
22480;SDS011;11407;56.964;-2.212;2023-04-15T00:58:37;8.00;;;4.20;;
22480;SDS011;11407;56.964;-2.212;2023-04-15T01:01:03;5.90;;;3.17;;
22480;SDS011;11407;56.964;-2.212;2023-04-15T01:03:28;5.63;;;3.17;;
22480;SDS011;11407;56.964;-2.212;2023-04-15T01:05:54;5.13;;;2.97;;
22480;SDS011;11407;56.964;-2.212;2023-04-15T01:08:31;8.60;;;3.43;;
22480;SDS011;11407;56.964;-2.212;2023-04-15T01:10:56;9.67;;;3.10;;
22480;SDS011;11407;56.964;-2.212;2023-04-15T01:13:23;5.43;;;3.50;;
22480;SDS011;11407;56.964;-2.212;2023-04-15T01:15:49;9.30;;;2.90;;
22480;SDS011;11407;56.964;-2.212;2023-04-15T01:18:14;8.30;;;3.63;;
22480;SDS011;11407;56.964;-2.212;2023-04-15T01:20:39;11.57;;;4.43;;
22480;SDS011;11407;56.964;-2.212;2023-04-15T01:23:05;12.43;;;4.60;;
22480;SDS011;11407;56.964;-2.212;2023-04-15T01:25:31;11.03;;;5.23;;
22480;SDS011;11407;56.964;-2.212;2023-04-15T01:27:57;12.07;;;5.53;;
22480;SDS011;11407;56.964;-2.212;2023-04-15T01:30:22;13.87;;;4.53;;
22480;SDS011;11407;56.964;-2.212;2023-04-15T01:32:47;11.97;;;5.57;;
22480;SDS011;11407;56.964;-2.212;2023-04-15T01:35:13;14.07;;;6.30;;
22480;SDS011;11407;56.964;-2.212;2023-04-15T01:37:38;15.83;;;5.87;;
22480;SDS011;11407;56.964;-2.212;2023-04-15T01:40:03;15.93;;;5.93;;
22480;SDS011;11407;56.964;-2.212;2023-04-15T01:42:28;14.53;;;6.10;;
22480;SDS011;11407;56.964;-2.212;2023-04-15T01:44:54;12.60;;;5.40;;
22480;SDS011;11407;56.964;-2.212;2023-04-15T01:47:19;13.67;;;6.13;;
22480;SDS011;11407;56.964;-2.212;2023-04-15T01:49:45;15.47;;;5.73;;
22480;SDS011;11407;56.964;-2.212;2023-04-15T01:52:10;13.13;;;5.73;;
22480;SDS011;11407;56.964;-2.212;2023-04-15T01:54:35;16.53;;;5.07;;
22480;SDS011;11407;56.964;-2.212;2023-04-15T01:57:01;14.47;;;5.33;;
22480;SDS011;11407;56.964;-2.212;2023-04-15T01:59:26;11.10;;;5.37;;
22480;SDS011;11407;56.964;-2.212;2023-04-15T02:01:51;12.10;;;4.97;;
22480;SDS011;11407;56.964;-2.212;2023-04-15T02:04:16;11.23;;;5.30;;
22480;SDS011;11407;56.964;-2.212;2023-04-15T02:06:42;9.40;;;5.40;;
22480;SDS011;11407;56.964;-2.212;2023-04-15T02:09:08;11.67;;;5.40;;
22480;SDS011;11407;56.964;-2.212;2023-04-15T02:11:33;11.27;;;5.07;;
22480;SDS011;11407;56.964;-2.212;2023-04-15T02:14:00;10.07;;;5.40;;
22480;SDS011;11407;56.964;-2.212;2023-04-15T02:16:25;8.77;;;5.37;;
22480;SDS011;11407;56.964;-2.212;2023-04-15T02:18:50;7.60;;;5.30;;
22480;SDS011;11407;56.964;-2.212;2023-04-15T02:21:16;9.47;;;5.10;;
22480;SDS011;11407;56.964;-2.212;2023-04-15T02:23:42;11.00;;;5.37;;
22480;SDS011;11407;56.964;-2.212;2023-04-15T02:26:08;9.53;;;5.27;;
22480;SDS011;11407;56.964;-2.212;2023-04-15T02:28:33;7.27;;;5.30;;
22480;SDS011;11407;56.964;-2.212;2023-04-15T02:30:58;11.73;;;5.60;;
22480;SDS011;11407;56.964;-2.212;2023-04-15T02:33:23;8.80;;;5.30;;
22480;SDS011;11407;56.964;-2.212;2023-04-15T02:35:49;9.10;;;5.57;;
22480;SDS011;11407;56.964;-2.212;2023-04-15T02:38:14;9.97;;;5.37;;
22480;SDS011;11407;56.964;-2.212;2023-04-15T02:40:41;11.90;;;5.70;;
22480;SDS011;11407;56.964;-2.212;2023-04-15T02:43:07;10.77;;;5.43;;
22480;SDS011;11407;56.964;-2.212;2023-04-15T02:45:32;10.77;;;5.90;;
22480;SDS011;11407;56.964;-2.212;2023-04-15T02:47:57;11.43;;;5.43;;
22480;SDS011;11407;56.964;-2.212;2023-04-15T02:50:23;10.10;;;6.10;;
22480;SDS011;11407;56.964;-2.212;2023-04-15T02:52:49;9.57;;;5.13;;
22480;SDS011;11407;56.964;-2.212;2023-04-15T02:55:15;7.43;;;4.47;;
22480;SDS011;11407;56.964;-2.212;2023-04-15T02:57:42;7.97;;;4.90;;
22480;SDS011;11407;56.964;-2.212;2023-04-15T03:00:07;6.63;;;4.47;;
22480;SDS011;11407;56.964;-2.212;2023-04-15T03:02:34;6.70;;;4.30;;
22480;SDS011;11407;56.964;-2.212;2023-04-15T03:05:00;7.40;;;4.33;;
22480;SDS011;11407;56.964;-2.212;2023-04-15T03:07:25;6.60;;;4.37;;
22480;SDS011;11407;56.964;-2.212;2023-04-15T03:09:50;8.00;;;4.43;;
22480;SDS011;11407;56.964;-2.212;2023-04-15T03:12:16;6.20;;;3.97;;
22480;SDS011;11407;56.964;-2.212;2023-04-15T03:14:41;7.47;;;4.67;;
22480;SDS011;11407;56.964;-2.212;2023-04-15T03:17:07;7.40;;;3.87;;
22480;SDS011;11407;56.964;-2.212;2023-04-15T03:19:32;6.23;;;4.33;;
22480;SDS011;11407;56.964;-2.212;2023-04-15T03:21:57;7.40;;;4.40;;
22480;SDS011;11407;56.964;-2.212;2023-04-15T03:24:23;6.90;;;4.07;;
22480;SDS011;11407;56.964;-2.212;2023-04-15T03:26:48;6.50;;;4.07;;
22480;SDS011;11407;56.964;-2.212;2023-04-15T03:29:14;6.63;;;3.97;;
22480;SDS011;11407;56.964;-2.212;2023-04-15T03:31:40;5.73;;;3.70;;
22480;SDS011;11407;56.964;-2.212;2023-04-15T03:34:05;4.17;;;3.27;;
22480;SDS011;11407;56.964;-2.212;2023-04-15T03:36:30;6.23;;;3.37;;
22480;SDS011;11407;56.964;-2.212;2023-04-15T03:38:57;3.93;;;3.00;;
22480;SDS011;11407;56.964;-2.212;2023-04-15T03:41:22;5.30;;;3.13;;
22480;SDS011;11407;56.964;-2.212;2023-04-15T03:43:48;4.80;;;3.37;;
22480;SDS011;11407;56.964;-2.212;2023-04-15T03:46:13;3.97;;;2.90;;
22480;SDS011;11407;56.964;-2.212;2023-04-15T03:48:38;5.07;;;3.03;;
22480;SDS011;11407;56.964;-2.212;2023-04-15T03:51:03;3.00;;;2.30;;
22480;SDS011;11407;56.964;-2.212;2023-04-15T03:53:29;3.40;;;2.70;;
22480;SDS011;11407;56.964;-2.212;2023-04-15T03:55:54;4.23;;;2.87;;
22480;SDS011;11407;56.964;-2.212;2023-04-15T03:58:19;3.33;;;2.50;;
22480;SDS011;11407;56.964;-2.212;2023-04-15T04:00:45;4.03;;;2.93;;
22480;SDS011;11407;56.964;-2.212;2023-04-15T04:03:10;4.27;;;2.97;;
22480;SDS011;11407;56.964;-2.212;2023-04-15T04:05:36;4.07;;;2.73;;
22480;SDS011;11407;56.964;-2.212;2023-04-15T04:08:03;4.50;;;2.87;;
22480;SDS011;11407;56.964;-2.212;2023-04-15T04:10:28;4.73;;;3.37;;
22480;SDS011;11407;56.964;-2.212;2023-04-15T04:12:53;6.63;;;3.13;;
22480;SDS011;11407;56.964;-2.212;2023-04-15T04:15:18;4.70;;;3.23;;
22480;SDS011;11407;56.964;-2.212;2023-04-15T04:17:44;3.27;;;2.67;;
22480;SDS011;11407;56.964;-2.212;2023-04-15T04:20:09;7.33;;;4.00;;
22480;SDS011;11407;56.964;-2.212;2023-04-15T04:22:38;6.50;;;4.20;;
22480;SDS011;11407;56.964;-2.212;2023-04-15T04:25:04;6.30;;;3.47;;
22480;SDS011;11407;56.964;-2.212;2023-04-15T04:27:31;7.23;;;3.47;;
22480;SDS011;11407;56.964;-2.212;2023-04-15T04:29:56;5.23;;;3.70;;
22480;SDS011;11407;56.964;-2.212;2023-04-15T04:32:21;5.70;;;3.77;;
22480;SDS011;11407;56.964;-2.212;2023-04-15T04:34:46;7.07;;;3.80;;
22480;SDS011;11407;56.964;-2.212;2023-04-15T04:37:12;5.50;;;3.57;;
22480;SDS011;11407;56.964;-2.212;2023-04-15T04:39:37;5.87;;;3.60;;
22480;SDS011;11407;56.964;-2.212;2023-04-15T04:42:02;4.77;;;3.50;;
22480;SDS011;11407;56.964;-2.212;2023-04-15T04:44:28;5.43;;;3.50;;
22480;SDS011;11407;56.964;-2.212;2023-04-15T04:46:53;3.47;;;2.90;;
22480;SDS011;11407;56.964;-2.212;2023-04-15T04:49:18;3.63;;;2.70;;
22480;SDS011;11407;56.964;-2.212;2023-04-15T04:51:44;3.17;;;2.60;;
22480;SDS011;11407;56.964;-2.212;2023-04-15T04:54:11;2.80;;;2.20;;
22480;SDS011;11407;56.964;-2.212;2023-04-15T04:56:36;2.90;;;2.30;;
22480;SDS011;11407;56.964;-2.212;2023-04-15T04:59:03;2.53;;;1.97;;
22480;SDS011;11407;56.964;-2.212;2023-04-15T05:01:28;2.20;;;2.00;;
22480;SDS011;11407;56.964;-2.212;2023-04-15T05:03:54;2.90;;;2.27;;
22480;SDS011;11407;56.964;-2.212;2023-04-15T05:06:19;2.90;;;1.80;;
22480;SDS011;11407;56.964;-2.212;2023-04-15T05:08:44;2.33;;;1.90;;
22480;SDS011;11407;56.964;-2.212;2023-04-15T05:11:11;2.07;;;1.80;;
22480;SDS011;11407;56.964;-2.212;2023-04-15T05:13:37;2.50;;;2.00;;
22480;SDS011;11407;56.964;-2.212;2023-04-15T05:16:03;2.77;;;1.73;;
22480;SDS011;11407;56.964;-2.212;2023-04-15T05:18:28;2.20;;;1.70;;
22480;SDS011;11407;56.964;-2.212;2023-04-15T05:20:54;1.80;;;1.70;;
22480;SDS011;11407;56.964;-2.212;2023-04-15T05:23:19;2.10;;;1.60;;
22480;SDS011;11407;56.964;-2.212;2023-04-15T05:25:45;1.63;;;1.50;;
22480;SDS011;11407;56.964;-2.212;2023-04-15T05:28:10;2.30;;;1.80;;
22480;SDS011;11407;56.964;-2.212;2023-04-15T05:30:35;2.17;;;1.80;;
22480;SDS011;11407;56.964;-2.212;2023-04-15T05:33:00;2.33;;;1.90;;
22480;SDS011;11407;56.964;-2.212;2023-04-15T05:35:26;2.40;;;2.10;;
22480;SDS011;11407;56.964;-2.212;2023-04-15T05:37:51;2.67;;;2.10;;
22480;SDS011;11407;56.964;-2.212;2023-04-15T05:40:16;4.63;;;2.37;;
22480;SDS011;11407;56.964;-2.212;2023-04-15T05:42:41;2.53;;;2.10;;
22480;SDS011;11407;56.964;-2.212;2023-04-15T05:45:07;3.23;;;2.27;;
22480;SDS011;11407;56.964;-2.212;2023-04-15T05:47:34;2.37;;;2.10;;
22480;SDS011;11407;56.964;-2.212;2023-04-15T05:49:59;2.37;;;1.90;;
22480;SDS011;11407;56.964;-2.212;2023-04-15T05:52:24;2.07;;;1.80;;
22480;SDS011;11407;56.964;-2.212;2023-04-15T05:54:50;2.07;;;1.87;;
22480;SDS011;11407;56.964;-2.212;2023-04-15T05:57:15;2.93;;;1.80;;
22480;SDS011;11407;56.964;-2.212;2023-04-15T05:59:40;1.87;;;1.70;;
22480;SDS011;11407;56.964;-2.212;2023-04-15T06:02:06;3.30;;;1.63;;
22480;SDS011;11407;56.964;-2.212;2023-04-15T06:04:32;2.27;;;1.70;;
22480;SDS011;11407;56.964;-2.212;2023-04-15T06:06:57;4.50;;;1.50;;
22480;SDS011;11407;56.964;-2.212;2023-04-15T06:09:22;2.00;;;1.80;;
22480;SDS011;11407;56.964;-2.212;2023-04-15T06:11:48;2.37;;;1.60;;
22480;SDS011;11407;56.964;-2.212;2023-04-15T06:14:13;2.00;;;1.80;;
22480;SDS011;11407;56.964;-2.212;2023-04-15T06:16:38;2.30;;;1.50;;
22480;SDS011;11407;56.964;-2.212;2023-04-15T06:19:03;2.27;;;1.80;;
22480;SDS011;11407;56.964;-2.212;2023-04-15T06:21:29;2.00;;;1.67;;
22480;SDS011;11407;56.964;-2.212;2023-04-15T06:23:55;2.80;;;1.70;;
22480;SDS011;11407;56.964;-2.212;2023-04-15T06:26:20;1.93;;;1.83;;
22480;SDS011;11407;56.964;-2.212;2023-04-15T06:28:45;2.80;;;1.90;;
22480;SDS011;11407;56.964;-2.212;2023-04-15T06:31:11;2.37;;;1.67;;
22480;SDS011;11407;56.964;-2.212;2023-04-15T06:33:36;3.27;;;1.80;;
22480;SDS011;11407;56.964;-2.212;2023-04-15T06:36:01;3.87;;;1.80;;
22480;SDS011;11407;56.964;-2.212;2023-04-15T06:38:27;1.60;;;1.50;;
22480;SDS011;11407;56.964;-2.212;2023-04-15T06:40:52;2.67;;;1.73;;
22480;SDS011;11407;56.964;-2.212;2023-04-15T06:43:17;3.10;;;1.70;;
22480;SDS011;11407;56.964;-2.212;2023-04-15T06:45:42;2.60;;;2.00;;
22480;SDS011;11407;56.964;-2.212;2023-04-15T06:48:08;1.83;;;1.57;;
22480;SDS011;11407;56.964;-2.212;2023-04-15T06:50:33;4.37;;;1.93;;
22480;SDS011;11407;56.964;-2.212;2023-04-15T06:52:59;1.97;;;1.80;;
22480;SDS011;11407;56.964;-2.212;2023-04-15T06:55:25;2.03;;;1.83;;
22480;SDS011;11407;56.964;-2.212;2023-04-15T06:57:50;2.37;;;1.80;;
22480;SDS011;11407;56.964;-2.212;2023-04-15T07:00:15;3.63;;;2.10;;
22480;SDS011;11407;56.964;-2.212;2023-04-15T07:02:41;6.20;;;2.10;;
22480;SDS011;11407;56.964;-2.212;2023-04-15T07:05:06;2.80;;;2.27;;
22480;SDS011;11407;56.964;-2.212;2023-04-15T07:07:32;2.80;;;2.20;;
22480;SDS011;11407;56.964;-2.212;2023-04-15T07:09:58;5.87;;;2.33;;
22480;SDS011;11407;56.964;-2.212;2023-04-15T07:12:25;5.70;;;2.50;;
22480;SDS011;11407;56.964;-2.212;2023-04-15T07:14:51;6.97;;;2.53;;
22480;SDS011;11407;56.964;-2.212;2023-04-15T07:17:16;3.20;;;2.67;;
22480;SDS011;11407;56.964;-2.212;2023-04-15T07:19:41;6.17;;;2.73;;
22480;SDS011;11407;56.964;-2.212;2023-04-15T07:22:07;5.57;;;2.63;;
22480;SDS011;11407;56.964;-2.212;2023-04-15T07:24:32;6.27;;;2.90;;
22480;SDS011;11407;56.964;-2.212;2023-04-15T07:26:57;2.60;;;2.40;;
22480;SDS011;11407;56.964;-2.212;2023-04-15T07:29:23;3.27;;;2.60;;
22480;SDS011;11407;56.964;-2.212;2023-04-15T07:31:48;5.60;;;2.90;;
22480;SDS011;11407;56.964;-2.212;2023-04-15T07:34:13;3.63;;;2.70;;
22480;SDS011;11407;56.964;-2.212;2023-04-15T07:36:39;5.50;;;2.70;;
22480;SDS011;11407;56.964;-2.212;2023-04-15T07:39:04;5.10;;;2.80;;
22480;SDS011;11407;56.964;-2.212;2023-04-15T07:41:29;5.63;;;2.83;;
22480;SDS011;11407;56.964;-2.212;2023-04-15T07:43:55;3.73;;;2.97;;
22480;SDS011;11407;56.964;-2.212;2023-04-15T07:46:20;4.53;;;2.50;;
22480;SDS011;11407;56.964;-2.212;2023-04-15T07:48:47;3.97;;;2.60;;
22480;SDS011;11407;56.964;-2.212;2023-04-15T07:51:13;3.87;;;2.70;;
22480;SDS011;11407;56.964;-2.212;2023-04-15T07:53:38;3.73;;;2.70;;
22480;SDS011;11407;56.964;-2.212;2023-04-15T07:56:03;4.83;;;2.70;;
22480;SDS011;11407;56.964;-2.212;2023-04-15T07:58:29;4.60;;;2.80;;
22480;SDS011;11407;56.964;-2.212;2023-04-15T08:00:55;3.83;;;2.40;;
22480;SDS011;11407;56.964;-2.212;2023-04-15T08:03:20;3.40;;;2.30;;
22480;SDS011;11407;56.964;-2.212;2023-04-15T08:05:46;5.03;;;2.37;;
22480;SDS011;11407;56.964;-2.212;2023-04-15T08:08:11;6.87;;;3.20;;
22480;SDS011;11407;56.964;-2.212;2023-04-15T08:10:37;4.60;;;3.37;;
22480;SDS011;11407;56.964;-2.212;2023-04-15T08:13:02;6.47;;;3.27;;
22480;SDS011;11407;56.964;-2.212;2023-04-15T08:15:28;5.17;;;3.47;;
22480;SDS011;11407;56.964;-2.212;2023-04-15T08:17:53;6.00;;;3.30;;
22480;SDS011;11407;56.964;-2.212;2023-04-15T08:20:18;3.63;;;2.80;;
22480;SDS011;11407;56.964;-2.212;2023-04-15T08:22:43;6.40;;;4.10;;
22480;SDS011;11407;56.964;-2.212;2023-04-15T08:25:09;5.33;;;3.77;;
22480;SDS011;11407;56.964;-2.212;2023-04-15T08:27:34;5.47;;;3.77;;
22480;SDS011;11407;56.964;-2.212;2023-04-15T08:30:00;6.30;;;4.20;;
22480;SDS011;11407;56.964;-2.212;2023-04-15T08:32:25;8.50;;;3.77;;
22480;SDS011;11407;56.964;-2.212;2023-04-15T08:34:51;4.87;;;4.03;;
22480;SDS011;11407;56.964;-2.212;2023-04-15T08:37:17;4.70;;;4.03;;
22480;SDS011;11407;56.964;-2.212;2023-04-15T08:39:42;8.13;;;5.27;;
22480;SDS011;11407;56.964;-2.212;2023-04-15T08:42:15;7.43;;;4.60;;
22480;SDS011;11407;56.964;-2.212;2023-04-15T08:44:41;6.67;;;4.50;;
22480;SDS011;11407;56.964;-2.212;2023-04-15T08:47:08;6.47;;;4.13;;
22480;SDS011;11407;56.964;-2.212;2023-04-15T08:49:38;11.47;;;7.13;;
22480;SDS011;11407;56.964;-2.212;2023-04-15T08:52:03;11.47;;;5.60;;
22480;SDS011;11407;56.964;-2.212;2023-04-15T08:54:29;10.50;;;6.20;;
22480;SDS011;11407;56.964;-2.212;2023-04-15T08:56:56;7.97;;;5.53;;
22480;SDS011;11407;56.964;-2.212;2023-04-15T08:59:21;7.23;;;4.80;;
22480;SDS011;11407;56.964;-2.212;2023-04-15T09:01:48;11.73;;;6.97;;
22480;SDS011;11407;56.964;-2.212;2023-04-15T09:04:15;6.50;;;4.17;;
22480;SDS011;11407;56.964;-2.212;2023-04-15T09:06:41;9.53;;;5.10;;
22480;SDS011;11407;56.964;-2.212;2023-04-15T09:09:06;8.00;;;4.93;;
22480;SDS011;11407;56.964;-2.212;2023-04-15T09:11:32;8.30;;;4.30;;
22480;SDS011;11407;56.964;-2.212;2023-04-15T09:13:57;6.20;;;3.93;;
22480;SDS011;11407;56.964;-2.212;2023-04-15T09:16:22;6.00;;;3.60;;
22480;SDS011;11407;56.964;-2.212;2023-04-15T09:18:48;4.43;;;3.50;;
22480;SDS011;11407;56.964;-2.212;2023-04-15T09:21:16;5.33;;;3.43;;
22480;SDS011;11407;56.964;-2.212;2023-04-15T09:23:58;4.67;;;3.17;;
22480;SDS011;11407;56.964;-2.212;2023-04-15T09:26:33;5.80;;;3.10;;
22480;SDS011;11407;56.964;-2.212;2023-04-15T09:29:05;4.40;;;3.30;;
22480;SDS011;11407;56.964;-2.212;2023-04-15T09:31:31;5.13;;;2.60;;
22480;SDS011;11407;56.964;-2.212;2023-04-15T09:33:57;5.50;;;3.27;;
22480;SDS011;11407;56.964;-2.212;2023-04-15T09:36:22;5.43;;;2.90;;
22480;SDS011;11407;56.964;-2.212;2023-04-15T09:38:55;4.80;;;2.77;;
22480;SDS011;11407;56.964;-2.212;2023-04-15T09:41:21;4.70;;;3.10;;
22480;SDS011;11407;56.964;-2.212;2023-04-15T09:43:47;4.80;;;2.70;;
22480;SDS011;11407;56.964;-2.212;2023-04-15T09:46:12;3.77;;;2.87;;
22480;SDS011;11407;56.964;-2.212;2023-04-15T09:48:38;4.10;;;2.80;;
22480;SDS011;11407;56.964;-2.212;2023-04-15T09:51:03;2.83;;;2.53;;
22480;SDS011;11407;56.964;-2.212;2023-04-15T09:53:28;8.30;;;3.43;;
22480;SDS011;11407;56.964;-2.212;2023-04-15T09:55:57;3.70;;;3.20;;
22480;SDS011;11407;56.964;-2.212;2023-04-15T09:58:27;5.87;;;2.90;;
22480;SDS011;11407;56.964;-2.212;2023-04-15T10:00:53;4.17;;;2.80;;
22480;SDS011;11407;56.964;-2.212;2023-04-15T10:03:20;3.97;;;2.87;;
22480;SDS011;11407;56.964;-2.212;2023-04-15T10:05:46;5.00;;;2.90;;
22480;SDS011;11407;56.964;-2.212;2023-04-15T10:08:12;4.73;;;3.30;;
22480;SDS011;11407;56.964;-2.212;2023-04-15T10:10:37;5.30;;;3.30;;
22480;SDS011;11407;56.964;-2.212;2023-04-15T10:13:03;3.57;;;2.87;;
22480;SDS011;11407;56.964;-2.212;2023-04-15T10:15:28;7.10;;;3.30;;
22480;SDS011;11407;56.964;-2.212;2023-04-15T10:17:54;4.13;;;2.90;;
22480;SDS011;11407;56.964;-2.212;2023-04-15T10:20:20;4.70;;;2.93;;
22480;SDS011;11407;56.964;-2.212;2023-04-15T10:22:46;3.23;;;2.93;;
22480;SDS011;11407;56.964;-2.212;2023-04-15T10:25:12;4.10;;;2.83;;
22480;SDS011;11407;56.964;-2.212;2023-04-15T10:27:39;3.97;;;3.20;;
22480;SDS011;11407;56.964;-2.212;2023-04-15T10:30:06;4.83;;;2.93;;
22480;SDS011;11407;56.964;-2.212;2023-04-15T10:32:33;6.23;;;3.53;;
22480;SDS011;11407;56.964;-2.212;2023-04-15T10:34:58;10.80;;;4.10;;
22480;SDS011;11407;56.964;-2.212;2023-04-15T10:37:37;10.23;;;4.23;;
22480;SDS011;11407;56.964;-2.212;2023-04-15T10:42:46;7.97;;;4.93;;
22480;SDS011;11407;56.964;-2.212;2023-04-15T10:45:15;9.30;;;5.10;;
22480;SDS011;11407;56.964;-2.212;2023-04-15T10:47:40;9.93;;;4.73;;
22480;SDS011;11407;56.964;-2.212;2023-04-15T10:50:07;7.10;;;4.80;;
22480;SDS011;11407;56.964;-2.212;2023-04-15T10:52:33;9.13;;;4.27;;
22480;SDS011;11407;56.964;-2.212;2023-04-15T10:55:14;7.97;;;5.03;;
22480;SDS011;11407;56.964;-2.212;2023-04-15T10:57:40;6.20;;;4.43;;
22480;SDS011;11407;56.964;-2.212;2023-04-15T11:00:10;12.37;;;4.37;;
22480;SDS011;11407;56.964;-2.212;2023-04-15T11:02:46;9.47;;;4.50;;
22480;SDS011;11407;56.964;-2.212;2023-04-15T11:05:15;7.53;;;4.27;;
22480;SDS011;11407;56.964;-2.212;2023-04-15T11:12:42;7.17;;;3.80;;
22480;SDS011;11407;56.964;-2.212;2023-04-15T11:17:51;8.43;;;3.80;;
22480;SDS011;11407;56.964;-2.212;2023-04-15T11:20:17;6.23;;;3.20;;
22480;SDS011;11407;56.964;-2.212;2023-04-15T11:22:49;5.03;;;3.40;;
22480;SDS011;11407;56.964;-2.212;2023-04-15T11:25:24;7.43;;;4.23;;
22480;SDS011;11407;56.964;-2.212;2023-04-15T11:27:50;7.93;;;4.40;;
22480;SDS011;11407;56.964;-2.212;2023-04-15T11:30:19;6.50;;;4.17;;
22480;SDS011;11407;56.964;-2.212;2023-04-15T11:32:46;6.53;;;4.10;;
22480;SDS011;11407;56.964;-2.212;2023-04-15T11:35:11;7.07;;;3.80;;
22480;SDS011;11407;56.964;-2.212;2023-04-15T11:37:36;5.90;;;3.53;;
22480;SDS011;11407;56.964;-2.212;2023-04-15T11:40:02;8.03;;;3.30;;
22480;SDS011;11407;56.964;-2.212;2023-04-15T11:42:27;9.73;;;4.00;;
22480;SDS011;11407;56.964;-2.212;2023-04-15T11:45:05;4.37;;;3.23;;
22480;SDS011;11407;56.964;-2.212;2023-04-15T11:47:31;5.13;;;3.50;;
22480;SDS011;11407;56.964;-2.212;2023-04-15T11:49:56;8.07;;;3.60;;
22480;SDS011;11407;56.964;-2.212;2023-04-15T11:52:21;5.77;;;3.30;;
22480;SDS011;11407;56.964;-2.212;2023-04-15T11:54:49;6.43;;;3.03;;
22480;SDS011;11407;56.964;-2.212;2023-04-15T11:57:15;5.47;;;3.73;;
22480;SDS011;11407;56.964;-2.212;2023-04-15T11:59:43;4.00;;;3.03;;
22480;SDS011;11407;56.964;-2.212;2023-04-15T12:02:12;8.73;;;3.53;;
22480;SDS011;11407;56.964;-2.212;2023-04-15T12:04:38;7.40;;;2.83;;
22480;SDS011;11407;56.964;-2.212;2023-04-15T12:07:03;4.37;;;2.90;;
22480;SDS011;11407;56.964;-2.212;2023-04-15T12:09:29;4.97;;;2.60;;
22480;SDS011;11407;56.964;-2.212;2023-04-15T12:11:56;7.53;;;3.17;;
22480;SDS011;11407;56.964;-2.212;2023-04-15T12:14:25;7.00;;;2.97;;
22480;SDS011;11407;56.964;-2.212;2023-04-15T12:16:53;5.50;;;3.27;;
22480;SDS011;11407;56.964;-2.212;2023-04-15T12:19:22;6.13;;;2.53;;
22480;SDS011;11407;56.964;-2.212;2023-04-15T12:21:48;6.00;;;2.63;;
22480;SDS011;11407;56.964;-2.212;2023-04-15T12:24:14;6.43;;;2.97;;
22480;SDS011;11407;56.964;-2.212;2023-04-15T12:26:49;6.37;;;2.60;;
22480;SDS011;11407;56.964;-2.212;2023-04-15T12:29:15;7.70;;;2.80;;
22480;SDS011;11407;56.964;-2.212;2023-04-15T12:31:55;6.57;;;2.50;;
22480;SDS011;11407;56.964;-2.212;2023-04-15T12:36:52;4.37;;;2.60;;
22480;SDS011;11407;56.964;-2.212;2023-04-15T12:39:20;4.80;;;2.57;;
22480;SDS011;11407;56.964;-2.212;2023-04-15T12:41:45;4.83;;;2.20;;
22480;SDS011;11407;56.964;-2.212;2023-04-15T12:44:11;5.90;;;2.60;;
22480;SDS011;11407;56.964;-2.212;2023-04-15T12:46:36;5.20;;;2.70;;
22480;SDS011;11407;56.964;-2.212;2023-04-15T12:49:02;4.03;;;2.70;;
22480;SDS011;11407;56.964;-2.212;2023-04-15T12:51:27;5.57;;;2.80;;
22480;SDS011;11407;56.964;-2.212;2023-04-15T12:53:53;6.03;;;2.83;;
22480;SDS011;11407;56.964;-2.212;2023-04-15T12:56:18;5.93;;;3.30;;
22480;SDS011;11407;56.964;-2.212;2023-04-15T12:58:43;7.87;;;2.70;;
22480;SDS011;11407;56.964;-2.212;2023-04-15T13:01:09;5.27;;;2.60;;
22480;SDS011;11407;56.964;-2.212;2023-04-15T13:03:34;5.80;;;3.07;;
22480;SDS011;11407;56.964;-2.212;2023-04-15T13:06:00;4.47;;;2.60;;
22480;SDS011;11407;56.964;-2.212;2023-04-15T13:08:26;3.47;;;2.90;;
22480;SDS011;11407;56.964;-2.212;2023-04-15T13:10:51;8.27;;;3.30;;
22480;SDS011;11407;56.964;-2.212;2023-04-15T13:13:17;5.03;;;2.93;;
22480;SDS011;11407;56.964;-2.212;2023-04-15T13:15:42;7.80;;;3.33;;
22480;SDS011;11407;56.964;-2.212;2023-04-15T13:18:09;6.50;;;2.90;;
22480;SDS011;11407;56.964;-2.212;2023-04-15T13:20:35;6.33;;;2.77;;
22480;SDS011;11407;56.964;-2.212;2023-04-15T13:23:00;6.70;;;2.63;;
22480;SDS011;11407;56.964;-2.212;2023-04-15T13:25:25;5.33;;;2.60;;
22480;SDS011;11407;56.964;-2.212;2023-04-15T13:27:51;6.10;;;2.50;;
22480;SDS011;11407;56.964;-2.212;2023-04-15T13:30:17;7.83;;;2.40;;
22480;SDS011;11407;56.964;-2.212;2023-04-15T13:32:42;4.97;;;2.43;;
22480;SDS011;11407;56.964;-2.212;2023-04-15T13:35:07;3.50;;;2.03;;
22480;SDS011;11407;56.964;-2.212;2023-04-15T13:37:33;3.10;;;2.17;;
22480;SDS011;11407;56.964;-2.212;2023-04-15T13:39:58;4.57;;;2.47;;
22480;SDS011;11407;56.964;-2.212;2023-04-15T13:42:23;3.00;;;1.90;;
22480;SDS011;11407;56.964;-2.212;2023-04-15T13:44:49;4.23;;;2.20;;
22480;SDS011;11407;56.964;-2.212;2023-04-15T13:47:15;5.33;;;2.20;;
22480;SDS011;11407;56.964;-2.212;2023-04-15T13:49:40;4.20;;;2.03;;
22480;SDS011;11407;56.964;-2.212;2023-04-15T13:52:06;4.63;;;2.13;;
22480;SDS011;11407;56.964;-2.212;2023-04-15T13:54:31;5.20;;;2.13;;
22480;SDS011;11407;56.964;-2.212;2023-04-15T13:56:56;5.03;;;2.00;;
22480;SDS011;11407;56.964;-2.212;2023-04-15T13:59:22;5.70;;;2.30;;
22480;SDS011;11407;56.964;-2.212;2023-04-15T14:01:47;3.63;;;2.27;;
22480;SDS011;11407;56.964;-2.212;2023-04-15T14:04:13;2.60;;;2.30;;
22480;SDS011;11407;56.964;-2.212;2023-04-15T14:06:38;5.53;;;2.50;;
22480;SDS011;11407;56.964;-2.212;2023-04-15T14:09:03;5.07;;;2.67;;
22480;SDS011;11407;56.964;-2.212;2023-04-15T14:11:28;5.70;;;2.67;;
22480;SDS011;11407;56.964;-2.212;2023-04-15T14:13:54;4.33;;;2.63;;
22480;SDS011;11407;56.964;-2.212;2023-04-15T14:16:19;4.80;;;2.47;;
22480;SDS011;11407;56.964;-2.212;2023-04-15T14:18:44;2.93;;;2.30;;
22480;SDS011;11407;56.964;-2.212;2023-04-15T14:21:10;4.90;;;2.40;;
22480;SDS011;11407;56.964;-2.212;2023-04-15T14:23:35;3.83;;;2.43;;
22480;SDS011;11407;56.964;-2.212;2023-04-15T14:26:00;6.43;;;2.73;;
22480;SDS011;11407;56.964;-2.212;2023-04-15T14:28:25;3.13;;;2.27;;
22480;SDS011;11407;56.964;-2.212;2023-04-15T14:30:51;3.17;;;2.60;;
22480;SDS011;11407;56.964;-2.212;2023-04-15T14:33:16;5.43;;;2.70;;
22480;SDS011;11407;56.964;-2.212;2023-04-15T14:35:41;2.90;;;2.47;;
22480;SDS011;11407;56.964;-2.212;2023-04-15T14:38:06;5.47;;;2.70;;